createdAt,value
2022-10-13T00:00:15.553Z,2.48
2022-10-13T00:01:17.035Z,2.53
2022-10-13T00:02:15.060Z,2.64
2022-10-13T00:03:15.329Z,2.53
2022-10-13T00:04:15.097Z,2.38
2022-10-13T00:05:15.358Z,2.42
2022-10-13T00:06:16.368Z,2.26
2022-10-13T00:07:15.242Z,1.98
2022-10-13T00:08:16.905Z,1.83
2022-10-13T00:09:15.192Z,1.89
2022-10-13T00:10:15.227Z,1.85
2022-10-13T00:11:16.974Z,1.85
2022-10-13T00:12:15.575Z,1.92
2022-10-13T00:13:15.270Z,1.85
2022-10-13T00:14:15.244Z,1.82
2022-10-13T00:15:15.495Z,1.78
2022-10-13T00:16:17.218Z,1.72
2022-10-13T00:17:15.296Z,1.77
2022-10-13T00:18:16.382Z,1.85
2022-10-13T00:19:15.352Z,1.85
2022-10-13T00:20:15.332Z,1.88
2022-10-13T00:21:16.978Z,1.79
2022-10-13T00:22:15.725Z,1.79
2022-10-13T00:23:16.045Z,1.82
2022-10-13T00:24:15.409Z,1.73
2022-10-13T00:25:15.440Z,1.78
2022-10-13T00:26:16.190Z,1.77
2022-10-13T00:27:15.458Z,1.96
2022-10-13T00:28:17.339Z,2.08
2022-10-13T00:29:15.477Z,2
2022-10-13T00:30:15.505Z,1.95
2022-10-13T00:32:18.501Z,1.81
2022-10-13T00:33:17.513Z,1.73
2022-10-13T00:34:17.534Z,1.68
2022-10-13T00:35:17.544Z,1.68
2022-10-13T00:36:17.553Z,1.67
2022-10-13T00:37:17.606Z,1.97
2022-10-13T00:38:19.275Z,1.86
2022-10-13T00:39:17.599Z,1.81
2022-10-13T00:40:17.642Z,1.85
2022-10-13T00:41:17.644Z,1.76
2022-10-13T00:42:17.964Z,1.77
2022-10-13T00:43:18.639Z,1.65
2022-10-13T00:45:26.659Z,1.66
2022-10-13T00:46:24.647Z,1.6
2022-10-13T00:47:24.312Z,1.64
2022-10-13T00:48:29.226Z,1.71
2022-10-13T00:49:26.066Z,1.73
2022-10-13T00:50:29.709Z,1.87
2022-10-13T00:51:28.996Z,1.86
2022-10-13T00:52:26.797Z,1.79
2022-10-13T00:53:30.367Z,1.73
2022-10-13T00:54:27.232Z,1.81
2022-10-13T00:55:29.382Z,1.87
2022-10-13T00:56:27.813Z,1.73
2022-10-13T00:57:27.343Z,1.84
2022-10-13T00:58:28.582Z,1.82
2022-10-13T00:59:27.677Z,1.93
2022-10-13T01:00:27.536Z,1.97
2022-10-13T01:01:27.630Z,1.88
2022-10-13T01:02:30.358Z,1.88
2022-10-13T01:03:27.388Z,1.94
2022-10-13T01:04:29.365Z,1.98
2022-10-13T01:05:27.343Z,1.76
2022-10-13T01:06:27.546Z,1.96
2022-10-13T01:07:27.638Z,2.19
2022-10-13T01:08:28.761Z,2.19
2022-10-13T01:09:27.356Z,1.94
2022-10-13T01:13:41.896Z,2.03
2022-10-13T01:30:19.115Z,1.78
2022-10-13T01:34:30.268Z,1.66
2022-10-13T01:39:40.248Z,1.46
2022-10-13T01:41:44.183Z,1.5
2022-10-13T01:43:47.750Z,1.38
2022-10-13T01:44:49.030Z,1.38
2022-10-13T01:45:51.555Z,1.36
2022-10-13T01:46:50.553Z,1.52
2022-10-13T01:47:49.006Z,1.46
2022-10-13T01:48:50.232Z,1.52
2022-10-13T01:49:50.390Z,1.6
2022-10-13T01:50:48.740Z,1.57
2022-10-13T01:51:49.238Z,1.58
2022-10-13T01:52:49.550Z,1.55
2022-10-13T01:53:48.959Z,1.64
2022-10-13T01:54:50.312Z,1.55
2022-10-13T01:55:52.794Z,1.53
2022-10-13T01:56:52.941Z,1.58
2022-10-13T01:57:49.631Z,1.49
2022-10-13T01:58:50.747Z,1.42
2022-10-13T01:59:49.704Z,1.35
2022-10-13T02:01:00.598Z,1.26
2022-10-13T02:07:14.508Z,1.25
2022-10-13T02:08:17.022Z,1.29
2022-10-13T02:11:21.822Z,1.27
2022-10-13T02:13:24.807Z,1.27
2022-10-13T02:14:25.393Z,1.26
2022-10-13T02:15:27.774Z,1.25
2022-10-13T02:16:25.119Z,1.27
2022-10-13T02:17:24.610Z,1.18
2022-10-13T02:18:27.580Z,1.16
2022-10-13T02:19:24.631Z,1.15
2022-10-13T02:20:24.038Z,1.23
2022-10-13T02:21:24.218Z,1.23
2022-10-13T02:22:26.931Z,1.29
2022-10-13T02:23:24.266Z,1.38
2022-10-13T02:24:24.314Z,1.49
2022-10-13T02:25:24.771Z,1.59
2022-10-13T02:26:24.669Z,1.57
2022-10-13T02:27:24.286Z,1.82
2022-10-13T02:28:24.811Z,1.77
2022-10-13T02:29:24.736Z,1.71
2022-10-13T02:30:25.732Z,1.64
2022-10-13T02:31:24.424Z,1.55
2022-10-13T02:32:24.427Z,1.3
2022-10-13T02:33:24.234Z,1.26
2022-10-13T02:34:24.263Z,1.18
2022-10-13T02:35:24.302Z,0.99
2022-10-13T02:36:24.273Z,1.07
2022-10-13T02:37:24.297Z,1.49
2022-10-13T02:38:24.302Z,1.58
2022-10-13T02:39:24.338Z,1.61
2022-10-13T02:40:24.854Z,1.75
2022-10-13T02:41:24.360Z,1.78
2022-10-13T02:42:24.579Z,1.65
2022-10-13T02:43:24.415Z,1.63
2022-10-13T02:44:24.585Z,1.67
2022-10-13T02:45:24.443Z,1.71
2022-10-13T02:46:24.632Z,1.58
2022-10-13T02:47:24.474Z,1.56
2022-10-13T02:48:24.485Z,1.29
2022-10-13T02:49:24.484Z,1.18
2022-10-13T02:50:24.516Z,1.2
2022-10-13T02:51:24.731Z,1.2
2022-10-13T02:52:24.760Z,1.26
2022-10-13T02:53:24.572Z,1.26
2022-10-13T02:54:24.559Z,1.13
2022-10-13T02:55:24.779Z,1.18
2022-10-13T02:56:24.658Z,1.26
2022-10-13T02:57:24.616Z,1.3
2022-10-13T02:58:24.647Z,1.66
2022-10-13T02:59:24.638Z,1.73
2022-10-13T03:00:24.902Z,1.69
2022-10-13T03:01:24.738Z,1.59
2022-10-13T03:02:25.943Z,1.56
2022-10-13T03:03:24.703Z,1.57
2022-10-13T03:04:24.927Z,1.71
2022-10-13T03:05:24.754Z,1.75
2022-10-13T03:06:24.817Z,1.75
2022-10-13T03:07:24.785Z,1.8
2022-10-13T03:08:24.997Z,1.79
2022-10-13T03:09:24.848Z,1.78
2022-10-13T03:10:24.828Z,1.86
2022-10-13T03:11:25.252Z,1.96
2022-10-13T03:12:24.919Z,2.09
2022-10-13T03:13:25.103Z,2.25
2022-10-13T03:14:24.889Z,2.03
2022-10-13T03:15:24.931Z,2.02
2022-10-13T03:16:25.322Z,1.87
2022-10-13T03:17:25.118Z,1.65
2022-10-13T03:18:25.132Z,1.51
2022-10-13T03:19:25.208Z,1.52
2022-10-13T03:20:24.978Z,1.7
2022-10-13T03:21:25.165Z,1.76
2022-10-13T03:22:25.211Z,1.53
2022-10-13T03:23:25.266Z,1.45
2022-10-13T03:24:25.025Z,1.39
2022-10-13T03:25:25.084Z,1.47
2022-10-13T03:26:25.067Z,1.66
2022-10-13T03:27:25.112Z,1.83
2022-10-13T03:28:25.298Z,1.98
2022-10-13T03:29:25.191Z,2
2022-10-13T03:30:25.197Z,1.95
2022-10-13T03:31:25.121Z,1.99
2022-10-13T03:32:25.192Z,2
2022-10-13T03:33:25.172Z,2.1
2022-10-13T03:34:25.207Z,2.12
2022-10-13T03:35:25.237Z,1.99
2022-10-13T03:36:25.214Z,2.08
2022-10-13T03:37:25.294Z,1.92
2022-10-13T03:38:25.247Z,1.95
2022-10-13T03:39:25.310Z,2.01
2022-10-13T03:40:25.628Z,1.97
2022-10-13T03:41:25.300Z,1.93
2022-10-13T03:42:25.340Z,1.92
2022-10-13T03:43:25.325Z,2.01
2022-10-13T03:44:25.545Z,1.94
2022-10-13T03:45:25.382Z,1.95
2022-10-13T03:46:27.424Z,1.95
2022-10-13T03:47:25.383Z,1.87
2022-10-13T03:48:25.536Z,1.86
2022-10-13T03:49:25.426Z,1.81
2022-10-13T03:50:25.709Z,1.74
2022-10-13T03:51:25.478Z,1.72
2022-10-13T03:52:25.520Z,1.62
2022-10-13T03:53:26.093Z,1.67
2022-10-13T03:54:25.680Z,1.7
2022-10-13T03:55:25.554Z,1.73
2022-10-13T03:56:26.249Z,1.76
2022-10-13T03:57:25.566Z,1.83
2022-10-13T03:58:25.568Z,1.69
2022-10-13T03:59:25.881Z,1.73
2022-10-13T04:00:25.595Z,1.71
2022-10-13T04:01:27.078Z,1.72
2022-10-13T04:02:25.858Z,1.77
2022-10-13T04:03:25.847Z,1.77
2022-10-13T04:04:25.707Z,1.69
2022-10-13T04:05:25.692Z,1.71
2022-10-13T04:06:26.081Z,1.78
2022-10-13T04:07:25.697Z,1.88
2022-10-13T04:08:25.759Z,1.89
2022-10-13T04:09:26.132Z,1.95
2022-10-13T04:10:26.005Z,1.88
2022-10-13T04:11:25.800Z,1.8
2022-10-13T04:12:26.249Z,1.81
2022-10-13T04:13:25.824Z,1.85
2022-10-13T04:14:25.867Z,1.92
2022-10-13T04:15:25.846Z,1.75
2022-10-13T04:16:27.677Z,1.74
2022-10-13T04:17:25.853Z,1.79
2022-10-13T04:18:25.901Z,1.67
2022-10-13T04:19:26.285Z,1.66
2022-10-13T04:20:25.923Z,1.83
2022-10-13T04:21:26.374Z,1.8
2022-10-13T04:22:25.950Z,1.88
2022-10-13T04:23:26.010Z,1.97
2022-10-13T04:24:26.041Z,2.04
2022-10-13T04:25:25.996Z,2.07
2022-10-13T04:26:27.223Z,2.11
2022-10-13T04:27:26.026Z,1.78
2022-10-13T04:28:26.088Z,1.88
2022-10-13T04:29:26.052Z,1.99
2022-10-13T04:30:26.191Z,1.91
2022-10-13T04:31:27.987Z,1.96
2022-10-13T04:32:26.142Z,1.98
2022-10-13T04:33:26.126Z,2
2022-10-13T04:34:26.143Z,1.96
2022-10-13T04:35:26.195Z,2.11
2022-10-13T04:36:26.488Z,2.08
2022-10-13T04:37:26.188Z,1.98
2022-10-13T04:38:26.212Z,2.06
2022-10-13T04:39:26.223Z,1.95
2022-10-13T04:40:26.649Z,1.86
2022-10-13T04:41:26.322Z,1.62
2022-10-13T04:42:26.272Z,1.79
2022-10-13T04:43:26.283Z,1.65
2022-10-13T04:44:26.313Z,1.51
2022-10-13T04:45:26.766Z,1.53
2022-10-13T04:46:26.792Z,1.76
2022-10-13T04:47:26.341Z,1.84
2022-10-13T04:48:26.392Z,1.85
2022-10-13T04:49:26.875Z,1.84
2022-10-13T04:50:26.699Z,1.85
2022-10-13T04:51:26.432Z,1.8
2022-10-13T04:52:26.477Z,1.73
2022-10-13T04:53:26.906Z,1.75
2022-10-13T04:54:26.472Z,1.81
2022-10-13T04:55:27.079Z,1.76
2022-10-13T04:56:26.962Z,1.76
2022-10-13T04:57:26.517Z,1.81
2022-10-13T04:58:26.751Z,1.84
2022-10-13T04:59:26.809Z,1.88
2022-10-13T05:00:26.686Z,1.95
2022-10-13T05:01:26.654Z,1.89
2022-10-13T05:02:26.597Z,1.89
2022-10-13T05:03:26.600Z,1.93
2022-10-13T05:04:26.645Z,1.92
2022-10-13T05:05:26.678Z,1.98
2022-10-13T05:06:28.153Z,2.03
2022-10-13T05:07:26.691Z,1.94
2022-10-13T05:08:26.677Z,1.96
2022-10-13T05:09:26.788Z,1.95
2022-10-13T05:10:29.233Z,2.01
2022-10-13T05:11:29.353Z,2.01
2022-10-13T05:12:28.889Z,2.03
2022-10-13T05:13:29.393Z,2.03
2022-10-13T05:14:29.109Z,2.09
2022-10-13T05:15:28.945Z,2.08
2022-10-13T05:16:28.975Z,2.05
2022-10-13T05:17:34.151Z,2.05
2022-10-13T05:18:31.478Z,2.06
2022-10-13T05:19:31.719Z,1.95
2022-10-13T05:20:31.510Z,2.08
2022-10-13T05:21:31.506Z,2.03
2022-10-13T05:22:31.612Z,1.98
2022-10-13T05:23:32.133Z,1.94
2022-10-13T05:24:31.931Z,1.91
2022-10-13T05:25:33.947Z,2.02
2022-10-13T05:26:34.853Z,2.11
2022-10-13T05:27:31.607Z,2.17
2022-10-13T05:28:31.930Z,2.14
2022-10-13T05:29:31.666Z,2.17
2022-10-13T05:30:32.273Z,2.31
2022-10-13T05:31:32.669Z,2.29
2022-10-13T05:32:31.678Z,2.26
2022-10-13T05:33:31.900Z,2.16
2022-10-13T05:34:32.095Z,2.17
2022-10-13T05:35:31.741Z,2.25
2022-10-13T05:36:33.345Z,2.27
2022-10-13T05:37:31.780Z,2.24
2022-10-13T05:38:31.997Z,2.32
2022-10-13T05:39:31.804Z,2.32
2022-10-13T05:40:31.877Z,2.45
2022-10-13T05:41:32.080Z,2.32
2022-10-13T05:42:31.852Z,2.41
2022-10-13T05:43:32.708Z,2.43
2022-10-13T05:44:31.999Z,2.34
2022-10-13T05:45:32.890Z,2.3
2022-10-13T05:46:32.070Z,2.4
2022-10-13T05:47:31.959Z,2.47
2022-10-13T05:48:31.964Z,2.57
2022-10-13T05:49:32.272Z,2.55
2022-10-13T05:50:31.972Z,2.6
2022-10-13T05:51:33.812Z,2.62
2022-10-13T05:52:33.086Z,2.44
2022-10-13T05:53:34.706Z,2.49
2022-10-13T05:55:34.852Z,2.4
2022-10-13T05:56:38.092Z,2.51
2022-10-13T05:57:37.206Z,2.53
2022-10-13T05:58:37.558Z,2.56
2022-10-13T05:59:37.283Z,2.62
2022-10-13T06:00:35.478Z,2.7
2022-10-13T06:01:37.039Z,2.79
2022-10-13T06:02:38.573Z,2.74
2022-10-13T06:03:35.584Z,2.73
2022-10-13T06:04:39.705Z,2.69
2022-10-13T06:05:35.952Z,2.8
2022-10-13T06:06:36.104Z,2.99
2022-10-13T06:07:36.576Z,2.84
2022-10-13T06:08:36.881Z,2.79
2022-10-13T06:09:37.552Z,3.02
2022-10-13T06:10:39.536Z,3.04
2022-10-13T06:11:36.016Z,3.19
2022-10-13T06:12:36.034Z,3.26
2022-10-13T06:13:36.036Z,3.45
2022-10-13T06:14:36.914Z,3.56
2022-10-13T06:15:36.085Z,3.61
2022-10-13T06:16:36.337Z,3.6
2022-10-13T06:17:36.907Z,3.65
2022-10-13T06:18:36.148Z,3.72
2022-10-13T06:19:36.429Z,3.7
2022-10-13T06:20:36.411Z,3.76
2022-10-13T06:21:36.206Z,3.7
2022-10-13T06:22:36.748Z,3.65
2022-10-13T06:23:36.213Z,3.72
2022-10-13T06:24:36.241Z,3.77
2022-10-13T06:25:36.241Z,3.83
2022-10-13T06:26:36.266Z,3.89
2022-10-13T06:27:36.526Z,3.93
2022-10-13T06:28:36.624Z,3.91
2022-10-13T06:29:36.319Z,3.97
2022-10-13T06:30:37.702Z,3.98
2022-10-13T06:31:36.368Z,3.98
2022-10-13T06:32:36.377Z,3.97
2022-10-13T06:33:36.399Z,4
2022-10-13T06:34:36.581Z,4.03
2022-10-13T06:35:36.401Z,4.06
2022-10-13T06:36:36.411Z,4.16
2022-10-13T06:37:36.458Z,4.12
2022-10-13T06:38:36.700Z,4.17
2022-10-13T06:39:36.525Z,4.23
2022-10-13T06:40:36.502Z,4.27
2022-10-13T06:41:36.547Z,4.28
2022-10-13T06:42:36.508Z,4.36
2022-10-13T06:43:40.335Z,4.4
2022-10-13T06:44:37.561Z,4.47
2022-10-13T06:45:36.968Z,4.47
2022-10-13T06:46:36.986Z,4.48
2022-10-13T06:47:37.028Z,4.46
2022-10-13T06:48:37.036Z,4.43
2022-10-13T06:49:37.087Z,4.48
2022-10-13T06:50:42.059Z,4.48
2022-10-13T06:51:39.269Z,4.46
2022-10-13T06:52:39.497Z,4.63
2022-10-13T06:53:39.252Z,4.7
2022-10-13T06:54:39.252Z,4.66
2022-10-13T06:55:39.263Z,4.7
2022-10-13T06:56:39.312Z,4.73
2022-10-13T06:57:39.324Z,4.82
2022-10-13T06:58:39.308Z,4.89
2022-10-13T06:59:39.281Z,4.95
2022-10-13T07:00:40.444Z,5.07
2022-10-13T07:01:41.717Z,4.91
2022-10-13T07:02:39.352Z,4.88
2022-10-13T07:03:39.370Z,4.93
2022-10-13T07:04:39.431Z,4.89
2022-10-13T07:05:39.400Z,4.86
2022-10-13T07:06:39.657Z,5.12
2022-10-13T07:07:39.428Z,4.91
2022-10-13T07:08:39.461Z,5.1
2022-10-13T07:09:39.463Z,5.16
2022-10-13T07:10:39.811Z,5.09
2022-10-13T07:11:39.760Z,5.12
2022-10-13T07:12:39.488Z,5.1
2022-10-13T07:13:43.590Z,5.2
2022-10-13T07:14:43.849Z,5.11
2022-10-13T07:15:42.718Z,5.26
2022-10-13T07:16:43.047Z,5.36
2022-10-13T07:17:42.790Z,5.27
2022-10-13T07:18:42.793Z,5.35
2022-10-13T07:19:42.897Z,5.31
2022-10-13T07:20:42.802Z,5.35
2022-10-13T07:21:43.045Z,5.39
2022-10-13T07:22:43.158Z,5.39
2022-10-13T07:23:42.859Z,5.44
2022-10-13T07:24:43.065Z,5.48
2022-10-13T07:25:42.888Z,5.78
2022-10-13T07:26:42.950Z,5.61
2022-10-13T07:27:42.928Z,5.57
2022-10-13T07:28:43.886Z,5.57
2022-10-13T07:29:42.936Z,5.65
2022-10-13T07:30:42.981Z,5.96
2022-10-13T07:31:43.947Z,5.89
2022-10-13T07:32:42.982Z,5.86
2022-10-13T07:33:44.078Z,5.8
2022-10-13T07:34:43.021Z,5.8
2022-10-13T07:35:43.426Z,5.73
2022-10-13T07:36:43.336Z,5.79
2022-10-13T07:37:43.399Z,5.93
2022-10-13T07:38:43.127Z,6
2022-10-13T07:39:43.122Z,6
2022-10-13T07:40:43.079Z,5.92
2022-10-13T07:41:46.359Z,6
2022-10-13T07:42:44.976Z,6.02
2022-10-13T07:43:45.018Z,5.98
2022-10-13T07:44:44.996Z,6.04
2022-10-13T07:45:44.978Z,6
2022-10-13T07:46:44.998Z,6.03
2022-10-13T07:47:45.245Z,6.06
2022-10-13T07:48:45.028Z,6.09
2022-10-13T07:49:45.021Z,6.19
2022-10-13T07:50:45.095Z,6.18
2022-10-13T07:51:45.061Z,6.26
2022-10-13T07:52:45.105Z,6.22
2022-10-13T07:53:45.072Z,6.29
2022-10-13T07:54:45.112Z,6.55
2022-10-13T07:55:45.102Z,6.47
2022-10-13T07:56:45.176Z,6.34
2022-10-13T07:57:45.433Z,6.45
2022-10-13T07:58:46.173Z,6.55
2022-10-13T07:59:45.159Z,6.66
2022-10-13T08:00:45.202Z,6.57
2022-10-13T08:01:45.283Z,6.7
2022-10-13T08:02:48.897Z,6.72
2022-10-13T08:03:49.090Z,6.8
2022-10-13T08:04:47.001Z,6.83
2022-10-13T08:05:46.949Z,6.51
2022-10-13T08:06:46.941Z,6.58
2022-10-13T08:07:46.934Z,6.65
2022-10-13T08:08:47.009Z,6.7
2022-10-13T08:09:47.008Z,6.59
2022-10-13T08:10:47.089Z,6.62
2022-10-13T08:11:46.986Z,6.9
2022-10-13T08:12:47.361Z,6.78
2022-10-13T08:13:50.640Z,6.62
2022-10-13T08:14:49.960Z,6.65
2022-10-13T08:15:47.130Z,6.68
2022-10-13T08:16:49.922Z,6.86
2022-10-13T08:17:49.436Z,6.81
2022-10-13T08:18:49.382Z,6.83
2022-10-13T08:19:50.607Z,6.89
2022-10-13T08:20:49.387Z,7
2022-10-13T08:21:58.666Z,6.98
2022-10-13T08:22:50.647Z,7.15
2022-10-13T08:23:50.656Z,7.05
2022-10-13T08:24:50.723Z,7.04
2022-10-13T08:25:50.865Z,7
2022-10-13T08:26:51.119Z,7.14
2022-10-13T08:27:52.025Z,7.22
2022-10-13T08:29:09.626Z,7.24
2022-10-13T08:29:52.407Z,7.14
2022-10-13T08:30:52.659Z,7.22
2022-10-13T08:31:53.442Z,7.43
2022-10-13T08:32:52.307Z,7.47
2022-10-13T08:33:52.326Z,7.54
2022-10-13T08:34:52.439Z,7.34
2022-10-13T08:35:52.592Z,7.48
2022-10-13T08:36:53.677Z,7.33
2022-10-13T08:37:52.427Z,7.34
2022-10-13T08:38:52.401Z,7.51
2022-10-13T08:39:55.129Z,7.52
2022-10-13T08:40:52.606Z,7.53
2022-10-13T08:41:52.875Z,7.61
2022-10-13T08:42:55.559Z,7.63
2022-10-13T08:45:28.389Z,7.63
2022-10-13T08:46:01.220Z,7.6
2022-10-13T08:49:08.383Z,7.67
2022-10-13T08:50:13.721Z,7.7
2022-10-13T08:51:12.365Z,7.81
2022-10-13T08:52:15.416Z,7.89
2022-10-13T08:54:16.557Z,7.95
2022-10-13T08:57:23.318Z,8.06
2022-10-13T08:58:28.172Z,8.14
2022-10-13T08:59:24.569Z,7.97
2022-10-13T09:00:24.397Z,7.99
2022-10-13T09:01:27.938Z,8.1
2022-10-13T09:02:31.182Z,8.09
2022-10-13T09:03:29.096Z,8.06
2022-10-13T09:04:29.647Z,8.07
2022-10-13T09:05:36.305Z,8.08
2022-10-13T09:06:31.958Z,8.27
2022-10-13T09:07:29.160Z,8.34
2022-10-13T09:08:31.801Z,8.27
2022-10-13T09:09:28.240Z,8.39
2022-10-13T09:10:28.181Z,8.38
2022-10-13T09:11:33.702Z,8.44
2022-10-13T09:12:29.890Z,8.35
2022-10-13T09:13:29.941Z,8.42
2022-10-13T09:14:31.991Z,8.23
2022-10-13T09:15:29.950Z,8.1
2022-10-13T09:16:34.245Z,8.14
2022-10-13T09:17:31.479Z,8.18
2022-10-13T09:18:31.470Z,8.33
2022-10-13T09:19:32.705Z,8.59
2022-10-13T09:20:30.719Z,8.53
2022-10-13T09:21:30.488Z,8.54
2022-10-13T09:22:35.084Z,8.63
2022-10-13T09:23:31.278Z,8.65
2022-10-13T09:24:31.329Z,8.49
2022-10-13T09:25:39.911Z,8.4
2022-10-13T09:26:39.159Z,8.42
2022-10-13T09:27:43.764Z,8.51
2022-10-13T09:28:40.189Z,8.67
2022-10-13T09:29:40.751Z,8.67
2022-10-13T09:30:41.738Z,8.63
2022-10-13T09:31:40.221Z,8.55
2022-10-13T09:32:40.349Z,8.7
2022-10-13T09:33:40.641Z,8.6
2022-10-13T09:34:40.230Z,8.6
2022-10-13T09:35:48.167Z,8.79
2022-10-13T09:43:06.681Z,9.03
2022-10-13T09:44:09.940Z,9.19
2022-10-13T09:45:16.516Z,9.15
2022-10-13T09:46:20.837Z,9.06
2022-10-13T09:47:20.418Z,9.04
2022-10-13T09:48:20.986Z,9.22
2022-10-13T09:52:26.603Z,8.56
2022-10-13T09:53:32.451Z,8.47
2022-10-13T09:55:34.074Z,8.78
2022-10-13T09:58:37.472Z,8.89
2022-10-13T09:59:40.898Z,8.94
2022-10-13T10:00:37.833Z,8.89
2022-10-13T10:01:39.733Z,8.85
2022-10-13T10:02:41.517Z,8.96
2022-10-13T10:03:38.324Z,9.06
2022-10-13T10:04:40.820Z,9.21
2022-10-13T10:06:43.703Z,8.83
2022-10-13T10:07:42.698Z,8.75
2022-10-13T10:10:48.767Z,8.42
2022-10-13T10:11:49.994Z,8.51
2022-10-13T10:12:48.797Z,8.44
2022-10-13T10:13:48.825Z,8.43
2022-10-13T10:14:49.167Z,8.75
2022-10-13T10:15:58.500Z,8.57
2022-10-13T10:16:52.985Z,8.64
2022-10-13T10:17:58.755Z,8.63
2022-10-13T10:18:58.814Z,8.49
2022-10-13T10:23:05.986Z,8.3
2022-10-13T10:26:11.570Z,8.5
2022-10-13T10:29:23.348Z,8.63
2022-10-13T10:30:19.445Z,8.65
2022-10-13T10:33:21.598Z,8.64
2022-10-13T10:38:39.196Z,8.58
2022-10-13T10:39:35.818Z,8.5
2022-10-13T10:41:50.092Z,8.53
2022-10-13T10:45:42.725Z,8.21
2022-10-13T10:47:44.175Z,8.18
2022-10-13T10:48:43.757Z,8.19
2022-10-13T10:49:42.943Z,8.14
2022-10-13T10:50:42.342Z,8.18
2022-10-13T10:51:42.574Z,8.24
2022-10-13T10:53:56.259Z,8.27
2022-10-13T10:54:55.294Z,8.34
2022-10-13T10:56:00.402Z,8.32
2022-10-13T10:56:54.568Z,8.41
2022-10-13T10:59:02.831Z,8.55
2022-10-13T11:00:01.374Z,8.77
2022-10-13T11:01:04.247Z,8.75
2022-10-13T11:02:10.060Z,8.75
2022-10-13T11:03:07.997Z,8.76
2022-10-13T11:05:08.346Z,8.87
2022-10-13T11:08:26.188Z,9.41
2022-10-13T11:10:20.266Z,9.59
2022-10-13T11:13:24.958Z,9.68
2022-10-13T11:14:27.839Z,9.96
2022-10-13T11:15:27.187Z,10.06
2022-10-13T11:17:31.251Z,10.3
2022-10-13T11:19:38.646Z,10.36
2022-10-13T11:22:40.030Z,10.39
2022-10-13T11:23:44.617Z,10.73
2022-10-13T11:25:43.336Z,10.3
2022-10-13T11:26:42.702Z,10.26
2022-10-13T11:27:42.924Z,10.25
2022-10-13T11:28:45.526Z,10.24
2022-10-13T11:30:52.889Z,10.17
2022-10-13T11:31:54.147Z,10.47
2022-10-13T11:32:50.891Z,10.42
2022-10-13T11:33:55.271Z,10.29
2022-10-13T11:34:58.049Z,10.71
2022-10-13T11:35:54.930Z,10.81
2022-10-13T11:36:55.996Z,10.68
2022-10-13T11:46:36.860Z,10.85
2022-10-13T11:54:54.267Z,11.05
2022-10-13T11:55:48.298Z,10.93
2022-10-13T11:56:48.881Z,11.08
2022-10-13T11:57:45.482Z,10.73
2022-10-13T11:58:45.549Z,10.55
2022-10-13T11:59:47.296Z,10.79
2022-10-13T12:01:54.776Z,10.58
2022-10-13T12:02:52.997Z,10.57
2022-10-13T12:03:51.002Z,10.38
2022-10-13T12:05:56.760Z,9.96
2022-10-13T12:07:02.799Z,9.96
2022-10-13T12:08:03.143Z,9.84
2022-10-13T12:09:07.365Z,10.02
2022-10-13T12:10:06.132Z,10.35
2022-10-13T12:11:04.182Z,10.66
2022-10-13T12:13:05.519Z,10.71
2022-10-13T12:14:07.133Z,10.84
2022-10-13T12:16:07.003Z,11.05
2022-10-13T12:21:16.623Z,11.01
2022-10-13T12:22:15.714Z,10.79
2022-10-13T12:23:16.747Z,10.7
2022-10-13T12:24:15.025Z,10.58
2022-10-13T12:25:16.226Z,10.32
2022-10-13T12:26:16.912Z,10.28
2022-10-13T12:27:21.085Z,10.41
2022-10-13T12:28:18.819Z,10.51
2022-10-13T12:29:19.327Z,10.82
2022-10-13T12:30:25.494Z,11.01
2022-10-13T12:31:26.230Z,10.81
2022-10-13T12:32:29.418Z,11.14
2022-10-13T12:33:34.942Z,11.45
2022-10-13T12:34:27.965Z,11.35
2022-10-13T12:35:30.582Z,11.41
2022-10-13T12:36:31.202Z,11.26
2022-10-13T12:37:29.462Z,11.16
2022-10-13T12:38:27.612Z,10.92
2022-10-13T12:39:29.165Z,10.87
2022-10-13T12:40:28.492Z,10.75
2022-10-13T12:41:29.091Z,10.35
2022-10-13T12:42:30.172Z,10.3
2022-10-13T12:43:27.533Z,10.59
2022-10-13T12:44:30.111Z,10.68
2022-10-13T12:45:31.154Z,10.68
2022-10-13T12:48:36.191Z,10.82
2022-10-13T12:49:33.937Z,10.87
2022-10-13T12:50:36.314Z,10.94
2022-10-13T12:51:32.960Z,10.95
2022-10-13T12:52:33.982Z,11.06
2022-10-13T12:53:32.733Z,11.3
2022-10-13T12:54:33.928Z,11.38
2022-10-13T12:55:33.271Z,11.28
2022-10-13T12:56:33.060Z,11.26
2022-10-13T12:57:37.608Z,11.02
2022-10-13T12:58:34.821Z,11.15
2022-10-13T12:59:33.811Z,11.09
2022-10-13T13:00:33.964Z,11.09
2022-10-13T13:01:34.400Z,11.02
2022-10-13T13:02:34.110Z,11
2022-10-13T13:03:35.490Z,10.64
2022-10-13T13:05:36.706Z,10.29
2022-10-13T13:06:36.697Z,10.35
2022-10-13T13:07:36.188Z,10.12
2022-10-13T13:08:34.956Z,10.29
2022-10-13T13:09:35.911Z,10.29
2022-10-13T13:10:34.990Z,10.33
2022-10-13T13:11:38.877Z,10.42
2022-10-13T13:12:36.053Z,10.38
2022-10-13T13:13:35.124Z,10.37
2022-10-13T13:14:37.102Z,10.35
2022-10-13T13:15:36.223Z,10.45
2022-10-13T13:16:35.135Z,10.5
2022-10-13T13:18:40.373Z,10.38
2022-10-13T13:19:36.625Z,10.52
2022-10-13T13:20:36.623Z,10.65
2022-10-13T13:21:36.598Z,10.7
2022-10-13T13:23:36.679Z,10.81
2022-10-13T13:24:40.282Z,10.95
2022-10-13T13:25:37.058Z,10.84
2022-10-13T13:26:37.050Z,10.84
2022-10-13T13:27:39.287Z,10.69
2022-10-13T13:29:37.111Z,10.5
2022-10-13T13:30:37.150Z,10.28
2022-10-13T13:31:37.175Z,10.16
2022-10-13T13:32:37.180Z,10.2
2022-10-13T13:33:37.262Z,10.01
2022-10-13T13:34:37.219Z,9.69
2022-10-13T13:35:37.628Z,10.02
2022-10-13T13:36:37.258Z,10.04
2022-10-13T13:37:38.418Z,10.08
2022-10-13T13:38:37.295Z,10.13
2022-10-13T13:39:37.280Z,10.04
2022-10-13T13:40:37.311Z,9.86
2022-10-13T13:41:37.344Z,9.86
2022-10-13T13:42:37.367Z,9.86
2022-10-13T13:43:37.577Z,9.83
2022-10-13T13:44:37.367Z,9.88
2022-10-13T13:45:37.434Z,9.83
2022-10-13T13:46:37.435Z,9.82
2022-10-13T13:47:37.511Z,10
2022-10-13T13:48:37.608Z,9.81
2022-10-13T13:49:37.450Z,9.74
2022-10-13T13:50:37.966Z,9.67
2022-10-13T13:51:37.493Z,9.65
2022-10-13T13:52:37.496Z,9.72
2022-10-13T13:53:37.520Z,9.78
2022-10-13T13:54:37.522Z,9.77
2022-10-13T13:55:37.746Z,9.8
2022-10-13T13:56:37.621Z,9.81
2022-10-13T13:57:37.590Z,9.76
2022-10-13T13:58:37.610Z,9.74
2022-10-13T13:59:38.096Z,9.74
2022-10-13T14:00:37.653Z,9.74
2022-10-13T14:01:37.937Z,9.74
2022-10-13T14:02:37.889Z,9.71
2022-10-13T14:03:37.689Z,9.69
2022-10-13T14:04:37.748Z,9.7
2022-10-13T14:05:40.698Z,9.69
2022-10-13T14:06:37.775Z,9.68
2022-10-13T14:07:38.162Z,9.78
2022-10-13T14:09:37.778Z,9.62
2022-10-13T14:10:39.493Z,9.65
2022-10-13T14:11:37.906Z,9.59
2022-10-13T14:12:38.078Z,9.56
2022-10-13T14:13:37.857Z,9.54
2022-10-13T14:14:37.876Z,9.51
2022-10-13T14:15:37.888Z,9.57
2022-10-13T14:16:37.928Z,9.55
2022-10-13T14:17:38.104Z,9.48
2022-10-13T14:18:37.932Z,9.44
2022-10-13T14:19:37.937Z,9.39
2022-10-13T14:20:40.201Z,9.38
2022-10-13T14:21:38.317Z,9.43
2022-10-13T14:22:38.749Z,9.43
2022-10-13T14:23:38.051Z,9.36
2022-10-13T14:24:38.080Z,9.35
2022-10-13T14:25:38.468Z,9.37
2022-10-13T14:26:38.158Z,9.34
2022-10-13T14:27:38.086Z,9.33
2022-10-13T14:28:40.275Z,9.34
2022-10-13T14:29:38.209Z,9.34
2022-10-13T14:30:41.474Z,9.31
2022-10-13T14:31:38.243Z,9.42
2022-10-13T14:32:38.159Z,9.38
2022-10-13T14:33:38.207Z,9.35
2022-10-13T14:34:38.230Z,9.35
2022-10-13T14:35:38.228Z,9.28
2022-10-13T14:36:38.258Z,9.15
2022-10-13T14:37:38.736Z,9.09
2022-10-13T14:38:38.264Z,9.1
2022-10-13T14:39:38.441Z,9.09
2022-10-13T14:40:41.432Z,9.06
2022-10-13T14:41:38.316Z,9.07
2022-10-13T14:42:38.367Z,9.13
2022-10-13T14:43:38.370Z,9.09
2022-10-13T14:44:38.378Z,9
2022-10-13T14:45:38.404Z,9.02
2022-10-13T14:46:38.418Z,9.05
2022-10-13T14:47:38.661Z,9.06
2022-10-13T14:48:38.704Z,9.03
2022-10-13T14:49:38.449Z,8.94
2022-10-13T14:50:38.506Z,8.94
2022-10-13T14:51:38.844Z,8.94
2022-10-13T14:52:38.561Z,8.92
2022-10-13T14:53:40.202Z,8.9
2022-10-13T14:54:42.466Z,8.9
2022-10-13T14:55:41.736Z,8.91
2022-10-13T14:56:41.336Z,8.88
2022-10-13T14:57:41.130Z,8.89
2022-10-13T14:58:41.194Z,8.89
2022-10-13T14:59:41.456Z,8.87
2022-10-13T15:00:42.672Z,8.81
2022-10-13T15:01:41.838Z,8.79
2022-10-13T15:02:41.463Z,8.74
2022-10-13T15:03:41.777Z,8.74
2022-10-13T15:04:41.313Z,8.7
2022-10-13T15:05:41.253Z,8.7
2022-10-13T15:06:41.327Z,8.73
2022-10-13T15:07:41.614Z,8.8
2022-10-13T15:08:41.342Z,8.73
2022-10-13T15:10:09.500Z,8.81
2022-10-13T15:10:42.521Z,8.77
2022-10-13T15:11:42.509Z,8.74
2022-10-13T15:12:42.619Z,8.73
2022-10-13T15:13:42.585Z,8.72
2022-10-13T15:14:42.605Z,8.68
2022-10-13T15:15:45.970Z,8.57
2022-10-13T15:16:42.610Z,8.6
2022-10-13T15:17:42.619Z,8.63
2022-10-13T15:18:43.018Z,8.62
2022-10-13T15:19:42.651Z,8.59
2022-10-13T15:21:44.748Z,8.63
2022-10-13T15:22:46.561Z,8.67
2022-10-13T15:23:45.015Z,8.67
2022-10-13T15:24:44.772Z,8.65
2022-10-13T15:26:49.104Z,8.62
2022-10-13T15:27:49.179Z,8.6
2022-10-13T15:28:50.016Z,8.62
2022-10-13T15:29:49.241Z,8.59